sensor_id;sensor_type;location;lat;lon;timestamp;temperature;humidity
44513;DHT22;30219;50.588;9.504;2023-02-01T00:00:05;4.00;99.90
44513;DHT22;30219;50.588;9.504;2023-02-01T00:02:31;3.90;99.90
44513;DHT22;30219;50.588;9.504;2023-02-01T00:04:57;3.90;99.90
44513;DHT22;30219;50.588;9.504;2023-02-01T00:07:22;4.00;99.90
44513;DHT22;30219;50.588;9.504;2023-02-01T00:09:48;3.90;99.90
44513;DHT22;30219;50.588;9.504;2023-02-01T00:12:13;3.90;99.90
44513;DHT22;30219;50.588;9.504;2023-02-01T00:14:39;3.90;99.90
44513;DHT22;30219;50.588;9.504;2023-02-01T00:17:05;3.90;99.90
44513;DHT22;30219;50.588;9.504;2023-02-01T00:19:32;3.90;99.90
44513;DHT22;30219;50.588;9.504;2023-02-01T00:21:58;3.90;99.90
44513;DHT22;30219;50.588;9.504;2023-02-01T00:24:23;3.90;99.90
44513;DHT22;30219;50.588;9.504;2023-02-01T00:26:49;3.80;99.90
44513;DHT22;30219;50.588;9.504;2023-02-01T00:29:17;3.90;99.90
44513;DHT22;30219;50.588;9.504;2023-02-01T00:31:43;3.80;99.90
44513;DHT22;30219;50.588;9.504;2023-02-01T00:34:13;3.80;99.90
44513;DHT22;30219;50.588;9.504;2023-02-01T00:36:40;3.80;99.90
44513;DHT22;30219;50.588;9.504;2023-02-01T00:39:06;3.80;99.90
44513;DHT22;30219;50.588;9.504;2023-02-01T00:41:32;3.80;99.90
44513;DHT22;30219;50.588;9.504;2023-02-01T00:43:57;3.90;99.90
44513;DHT22;30219;50.588;9.504;2023-02-01T00:46:23;3.90;99.90
44513;DHT22;30219;50.588;9.504;2023-02-01T00:48:49;3.90;99.90
44513;DHT22;30219;50.588;9.504;2023-02-01T00:51:21;3.90;99.90
44513;DHT22;30219;50.588;9.504;2023-02-01T00:53:47;3.90;99.90
44513;DHT22;30219;50.588;9.504;2023-02-01T00:56:13;3.90;99.90
44513;DHT22;30219;50.588;9.504;2023-02-01T00:58:38;3.90;99.90
44513;DHT22;30219;50.588;9.504;2023-02-01T01:01:07;4.00;99.90
44513;DHT22;30219;50.588;9.504;2023-02-01T01:03:34;3.90;99.90
44513;DHT22;30219;50.588;9.504;2023-02-01T01:06:03;4.00;99.90
44513;DHT22;30219;50.588;9.504;2023-02-01T01:08:29;4.00;99.90
44513;DHT22;30219;50.588;9.504;2023-02-01T01:10:55;4.00;99.90
44513;DHT22;30219;50.588;9.504;2023-02-01T01:13:20;4.00;99.90
44513;DHT22;30219;50.588;9.504;2023-02-01T01:15:46;4.00;99.90
44513;DHT22;30219;50.588;9.504;2023-02-01T01:18:12;4.00;99.90
44513;DHT22;30219;50.588;9.504;2023-02-01T01:20:39;4.10;99.90
44513;DHT22;30219;50.588;9.504;2023-02-01T01:23:06;4.00;99.90
44513;DHT22;30219;50.588;9.504;2023-02-01T01:25:31;4.00;99.90
44513;DHT22;30219;50.588;9.504;2023-02-01T01:27:57;4.00;99.90
44513;DHT22;30219;50.588;9.504;2023-02-01T01:30:23;4.10;99.90
44513;DHT22;30219;50.588;9.504;2023-02-01T01:32:49;4.10;99.90
44513;DHT22;30219;50.588;9.504;2023-02-01T01:35:14;4.10;99.90
44513;DHT22;30219;50.588;9.504;2023-02-01T01:37:40;4.10;99.90
44513;DHT22;30219;50.588;9.504;2023-02-01T01:40:07;4.20;99.90
44513;DHT22;30219;50.588;9.504;2023-02-01T01:42:40;4.20;99.90
44513;DHT22;30219;50.588;9.504;2023-02-01T01:47:58;4.30;99.90
44513;DHT22;30219;50.588;9.504;2023-02-01T01:50:35;4.20;99.90
44513;DHT22;30219;50.588;9.504;2023-02-01T01:53:03;4.30;99.90
44513;DHT22;30219;50.588;9.504;2023-02-01T01:55:34;4.30;99.90
44513;DHT22;30219;50.588;9.504;2023-02-01T01:58:07;4.30;99.90
44513;DHT22;30219;50.588;9.504;2023-02-01T02:00:34;4.20;99.90
44513;DHT22;30219;50.588;9.504;2023-02-01T02:03:15;4.20;99.90
44513;DHT22;30219;50.588;9.504;2023-02-01T02:05:44;4.10;99.90
44513;DHT22;30219;50.588;9.504;2023-02-01T02:08:12;4.20;99.90
44513;DHT22;30219;50.588;9.504;2023-02-01T02:10:37;4.20;99.90
44513;DHT22;30219;50.588;9.504;2023-02-01T02:13:22;4.20;99.90
44513;DHT22;30219;50.588;9.504;2023-02-01T02:16:24;4.20;99.90
44513;DHT22;30219;50.588;9.504;2023-02-01T02:27:06;4.40;99.90
44513;DHT22;30219;50.588;9.504;2023-02-01T02:38:07;4.40;99.90
44513;DHT22;30219;50.588;9.504;2023-02-01T02:40:41;4.40;99.90
44513;DHT22;30219;50.588;9.504;2023-02-01T02:45:59;4.40;99.90
44513;DHT22;30219;50.588;9.504;2023-02-01T02:49:00;4.30;99.90
44513;DHT22;30219;50.588;9.504;2023-02-01T02:54:41;4.30;99.90
44513;DHT22;30219;50.588;9.504;2023-02-01T02:57:28;4.30;99.90
44513;DHT22;30219;50.588;9.504;2023-02-01T03:00:17;4.30;99.90
44513;DHT22;30219;50.588;9.504;2023-02-01T03:03:02;4.20;99.90
44513;DHT22;30219;50.588;9.504;2023-02-01T03:05:48;4.30;99.90
44513;DHT22;30219;50.588;9.504;2023-02-01T03:08:21;4.30;99.90
44513;DHT22;30219;50.588;9.504;2023-02-01T03:13:33;4.40;99.90
44513;DHT22;30219;50.588;9.504;2023-02-01T03:16:14;4.50;99.90
44513;DHT22;30219;50.588;9.504;2023-02-01T03:21:16;4.30;99.90
44513;DHT22;30219;50.588;9.504;2023-02-01T03:23:44;4.30;99.90
44513;DHT22;30219;50.588;9.504;2023-02-01T03:26:13;4.30;99.90
44513;DHT22;30219;50.588;9.504;2023-02-01T03:28:50;4.30;99.90
44513;DHT22;30219;50.588;9.504;2023-02-01T03:31:17;4.40;99.90
44513;DHT22;30219;50.588;9.504;2023-02-01T03:33:43;4.30;99.90
44513;DHT22;30219;50.588;9.504;2023-02-01T03:36:26;4.40;99.90
44513;DHT22;30219;50.588;9.504;2023-02-01T03:39:07;4.40;99.90
44513;DHT22;30219;50.588;9.504;2023-02-01T03:41:49;4.40;99.90
44513;DHT22;30219;50.588;9.504;2023-02-01T03:47:03;4.40;99.90
44513;DHT22;30219;50.588;9.504;2023-02-01T03:49:40;4.40;99.90
44513;DHT22;30219;50.588;9.504;2023-02-01T03:52:09;4.40;99.90
44513;DHT22;30219;50.588;9.504;2023-02-01T03:54:36;4.40;99.90
44513;DHT22;30219;50.588;9.504;2023-02-01T03:57:07;4.30;99.90
44513;DHT22;30219;50.588;9.504;2023-02-01T03:59:41;4.30;99.90
44513;DHT22;30219;50.588;9.504;2023-02-01T04:02:07;4.40;99.90
44513;DHT22;30219;50.588;9.504;2023-02-01T04:04:34;4.40;99.90
44513;DHT22;30219;50.588;9.504;2023-02-01T04:07:00;4.30;99.90
44513;DHT22;30219;50.588;9.504;2023-02-01T04:09:26;4.30;99.90
44513;DHT22;30219;50.588;9.504;2023-02-01T04:11:51;4.30;99.90
44513;DHT22;30219;50.588;9.504;2023-02-01T04:14:17;4.30;99.90
44513;DHT22;30219;50.588;9.504;2023-02-01T04:16:42;4.30;99.90
44513;DHT22;30219;50.588;9.504;2023-02-01T04:19:08;4.40;99.90
44513;DHT22;30219;50.588;9.504;2023-02-01T04:21:34;4.40;99.90
44513;DHT22;30219;50.588;9.504;2023-02-01T04:23:59;4.40;99.90
44513;DHT22;30219;50.588;9.504;2023-02-01T04:26:25;4.40;99.90
44513;DHT22;30219;50.588;9.504;2023-02-01T04:28:50;4.40;99.90
44513;DHT22;30219;50.588;9.504;2023-02-01T04:31:18;4.40;99.90
44513;DHT22;30219;50.588;9.504;2023-02-01T04:33:51;4.50;99.90
44513;DHT22;30219;50.588;9.504;2023-02-01T04:36:16;4.40;99.90
44513;DHT22;30219;50.588;9.504;2023-02-01T04:38:44;4.30;99.90
44513;DHT22;30219;50.588;9.504;2023-02-01T04:41:10;4.40;99.90
44513;DHT22;30219;50.588;9.504;2023-02-01T04:43:35;4.40;99.90
44513;DHT22;30219;50.588;9.504;2023-02-01T04:46:01;4.40;99.90
44513;DHT22;30219;50.588;9.504;2023-02-01T04:48:27;4.40;99.90
44513;DHT22;30219;50.588;9.504;2023-02-01T04:50:53;4.40;99.90
44513;DHT22;30219;50.588;9.504;2023-02-01T04:53:18;4.40;99.90
44513;DHT22;30219;50.588;9.504;2023-02-01T04:55:44;4.40;99.90
44513;DHT22;30219;50.588;9.504;2023-02-01T04:58:10;4.50;99.90
44513;DHT22;30219;50.588;9.504;2023-02-01T05:00:36;4.40;99.90
44513;DHT22;30219;50.588;9.504;2023-02-01T05:03:02;4.50;99.90
44513;DHT22;30219;50.588;9.504;2023-02-01T05:05:28;4.50;99.90
44513;DHT22;30219;50.588;9.504;2023-02-01T05:07:54;4.50;99.90
44513;DHT22;30219;50.588;9.504;2023-02-01T05:10:20;4.50;99.90
44513;DHT22;30219;50.588;9.504;2023-02-01T05:12:46;4.40;99.90
44513;DHT22;30219;50.588;9.504;2023-02-01T05:15:30;4.40;99.90
44513;DHT22;30219;50.588;9.504;2023-02-01T05:17:57;4.30;99.90
44513;DHT22;30219;50.588;9.504;2023-02-01T05:20:23;4.30;99.90
44513;DHT22;30219;50.588;9.504;2023-02-01T05:22:49;4.30;99.90
44513;DHT22;30219;50.588;9.504;2023-02-01T05:25:14;4.30;99.90
44513;DHT22;30219;50.588;9.504;2023-02-01T05:27:40;4.30;99.90
44513;DHT22;30219;50.588;9.504;2023-02-01T05:30:06;4.30;99.90
44513;DHT22;30219;50.588;9.504;2023-02-01T05:32:32;4.30;99.90
44513;DHT22;30219;50.588;9.504;2023-02-01T05:34:58;4.30;99.90
44513;DHT22;30219;50.588;9.504;2023-02-01T05:37:24;4.20;99.90
44513;DHT22;30219;50.588;9.504;2023-02-01T05:39:49;4.20;99.90
44513;DHT22;30219;50.588;9.504;2023-02-01T05:42:15;4.30;99.90
44513;DHT22;30219;50.588;9.504;2023-02-01T05:44:41;4.20;99.90
44513;DHT22;30219;50.588;9.504;2023-02-01T05:47:07;4.20;99.90
44513;DHT22;30219;50.588;9.504;2023-02-01T05:49:32;4.10;99.90
44513;DHT22;30219;50.588;9.504;2023-02-01T05:51:58;4.10;99.90
44513;DHT22;30219;50.588;9.504;2023-02-01T05:54:24;4.10;99.90
44513;DHT22;30219;50.588;9.504;2023-02-01T05:56:49;4.10;99.90
44513;DHT22;30219;50.588;9.504;2023-02-01T05:59:15;4.00;99.90
44513;DHT22;30219;50.588;9.504;2023-02-01T06:01:41;4.00;99.90
44513;DHT22;30219;50.588;9.504;2023-02-01T06:04:06;4.10;99.90
44513;DHT22;30219;50.588;9.504;2023-02-01T06:06:32;4.10;99.90
44513;DHT22;30219;50.588;9.504;2023-02-01T06:08:57;4.10;99.90
44513;DHT22;30219;50.588;9.504;2023-02-01T06:11:24;4.10;99.90
44513;DHT22;30219;50.588;9.504;2023-02-01T06:13:50;4.10;99.90
44513;DHT22;30219;50.588;9.504;2023-02-01T06:16:15;4.10;99.90
44513;DHT22;30219;50.588;9.504;2023-02-01T06:18:41;4.10;99.90
44513;DHT22;30219;50.588;9.504;2023-02-01T06:21:07;4.00;99.90
44513;DHT22;30219;50.588;9.504;2023-02-01T06:23:34;4.10;99.90
44513;DHT22;30219;50.588;9.504;2023-02-01T06:26:02;4.10;99.90
44513;DHT22;30219;50.588;9.504;2023-02-01T06:28:28;4.10;99.90
44513;DHT22;30219;50.588;9.504;2023-02-01T06:30:55;4.10;99.90
44513;DHT22;30219;50.588;9.504;2023-02-01T06:33:20;4.10;99.90
44513;DHT22;30219;50.588;9.504;2023-02-01T06:35:46;4.10;99.90
44513;DHT22;30219;50.588;9.504;2023-02-01T06:38:12;4.10;99.90
44513;DHT22;30219;50.588;9.504;2023-02-01T06:40:39;4.10;99.90
44513;DHT22;30219;50.588;9.504;2023-02-01T06:43:06;4.00;99.90
44513;DHT22;30219;50.588;9.504;2023-02-01T06:45:32;4.00;99.90
44513;DHT22;30219;50.588;9.504;2023-02-01T06:47:58;4.00;99.90
44513;DHT22;30219;50.588;9.504;2023-02-01T06:50:24;4.00;99.90
44513;DHT22;30219;50.588;9.504;2023-02-01T06:52:50;4.00;99.90
44513;DHT22;30219;50.588;9.504;2023-02-01T06:55:16;4.00;99.90
44513;DHT22;30219;50.588;9.504;2023-02-01T06:57:41;4.00;99.90
44513;DHT22;30219;50.588;9.504;2023-02-01T07:00:07;4.10;99.90
44513;DHT22;30219;50.588;9.504;2023-02-01T07:02:33;4.10;99.90
44513;DHT22;30219;50.588;9.504;2023-02-01T07:04:58;4.10;99.90
44513;DHT22;30219;50.588;9.504;2023-02-01T07:07:24;4.10;99.90
44513;DHT22;30219;50.588;9.504;2023-02-01T07:09:50;4.10;99.90
44513;DHT22;30219;50.588;9.504;2023-02-01T07:12:15;4.10;99.90
44513;DHT22;30219;50.588;9.504;2023-02-01T07:14:41;4.10;99.90
44513;DHT22;30219;50.588;9.504;2023-02-01T07:17:07;4.10;99.90
44513;DHT22;30219;50.588;9.504;2023-02-01T07:19:33;4.10;99.90
44513;DHT22;30219;50.588;9.504;2023-02-01T07:21:58;4.10;99.90
44513;DHT22;30219;50.588;9.504;2023-02-01T07:24:24;4.10;99.90
44513;DHT22;30219;50.588;9.504;2023-02-01T07:26:49;4.10;99.90
44513;DHT22;30219;50.588;9.504;2023-02-01T07:29:17;4.20;99.90
44513;DHT22;30219;50.588;9.504;2023-02-01T07:31:42;4.30;99.90
44513;DHT22;30219;50.588;9.504;2023-02-01T07:34:08;4.30;99.90
44513;DHT22;30219;50.588;9.504;2023-02-01T07:36:34;4.40;99.90
44513;DHT22;30219;50.588;9.504;2023-02-01T07:39:02;4.40;99.90
44513;DHT22;30219;50.588;9.504;2023-02-01T07:41:27;4.40;99.90
44513;DHT22;30219;50.588;9.504;2023-02-01T07:43:53;4.40;99.90
44513;DHT22;30219;50.588;9.504;2023-02-01T07:46:19;4.50;99.90
44513;DHT22;30219;50.588;9.504;2023-02-01T07:48:45;4.50;99.90
44513;DHT22;30219;50.588;9.504;2023-02-01T07:51:13;4.40;99.90
44513;DHT22;30219;50.588;9.504;2023-02-01T07:53:39;4.50;99.90
44513;DHT22;30219;50.588;9.504;2023-02-01T07:56:13;4.50;99.90
44513;DHT22;30219;50.588;9.504;2023-02-01T07:58:39;4.80;99.90
44513;DHT22;30219;50.588;9.504;2023-02-01T08:01:05;5.10;99.90
44513;DHT22;30219;50.588;9.504;2023-02-01T08:03:51;5.20;99.90
44513;DHT22;30219;50.588;9.504;2023-02-01T08:06:17;5.30;99.90
44513;DHT22;30219;50.588;9.504;2023-02-01T08:08:45;5.10;99.90
44513;DHT22;30219;50.588;9.504;2023-02-01T08:11:11;5.10;99.90
44513;DHT22;30219;50.588;9.504;2023-02-01T08:13:36;5.00;99.90
44513;DHT22;30219;50.588;9.504;2023-02-01T08:16:04;4.90;99.90
44513;DHT22;30219;50.588;9.504;2023-02-01T08:18:31;4.90;99.90
44513;DHT22;30219;50.588;9.504;2023-02-01T08:20:57;4.90;99.90
44513;DHT22;30219;50.588;9.504;2023-02-01T08:23:23;4.90;99.90
44513;DHT22;30219;50.588;9.504;2023-02-01T08:25:49;4.90;99.90
44513;DHT22;30219;50.588;9.504;2023-02-01T08:28:15;4.80;99.90
44513;DHT22;30219;50.588;9.504;2023-02-01T08:30:41;4.80;99.90
44513;DHT22;30219;50.588;9.504;2023-02-01T08:33:09;4.80;99.90
44513;DHT22;30219;50.588;9.504;2023-02-01T08:35:36;4.90;99.90
44513;DHT22;30219;50.588;9.504;2023-02-01T08:38:02;4.90;99.90
44513;DHT22;30219;50.588;9.504;2023-02-01T08:40:28;4.80;99.90
44513;DHT22;30219;50.588;9.504;2023-02-01T08:42:54;4.70;99.90
44513;DHT22;30219;50.588;9.504;2023-02-01T08:45:29;4.70;99.90
44513;DHT22;30219;50.588;9.504;2023-02-01T08:47:56;4.80;99.90
44513;DHT22;30219;50.588;9.504;2023-02-01T08:50:23;4.80;99.90
44513;DHT22;30219;50.588;9.504;2023-02-01T08:52:49;4.70;99.90
44513;DHT22;30219;50.588;9.504;2023-02-01T08:55:15;4.70;99.90
44513;DHT22;30219;50.588;9.504;2023-02-01T08:57:42;4.70;99.90
44513;DHT22;30219;50.588;9.504;2023-02-01T09:00:09;4.70;99.90
44513;DHT22;30219;50.588;9.504;2023-02-01T09:02:36;4.80;99.90
44513;DHT22;30219;50.588;9.504;2023-02-01T09:05:02;4.80;99.90
44513;DHT22;30219;50.588;9.504;2023-02-01T09:07:28;4.80;99.90
44513;DHT22;30219;50.588;9.504;2023-02-01T09:09:54;4.90;99.90
44513;DHT22;30219;50.588;9.504;2023-02-01T09:12:22;4.90;99.90
44513;DHT22;30219;50.588;9.504;2023-02-01T09:14:47;5.10;99.90
44513;DHT22;30219;50.588;9.504;2023-02-01T09:17:14;5.20;99.90
44513;DHT22;30219;50.588;9.504;2023-02-01T09:19:39;5.30;99.90
44513;DHT22;30219;50.588;9.504;2023-02-01T09:22:05;5.30;99.90
44513;DHT22;30219;50.588;9.504;2023-02-01T09:24:30;5.20;99.90
44513;DHT22;30219;50.588;9.504;2023-02-01T09:26:56;5.10;99.90
44513;DHT22;30219;50.588;9.504;2023-02-01T09:29:22;5.00;99.90
44513;DHT22;30219;50.588;9.504;2023-02-01T09:31:47;4.90;99.90
44513;DHT22;30219;50.588;9.504;2023-02-01T09:34:13;4.90;99.90
44513;DHT22;30219;50.588;9.504;2023-02-01T09:36:39;4.80;99.90
44513;DHT22;30219;50.588;9.504;2023-02-01T09:39:05;4.90;99.90
44513;DHT22;30219;50.588;9.504;2023-02-01T09:44:29;4.80;99.90
44513;DHT22;30219;50.588;9.504;2023-02-01T09:46:58;4.80;99.90
44513;DHT22;30219;50.588;9.504;2023-02-01T09:49:30;4.90;99.90
44513;DHT22;30219;50.588;9.504;2023-02-01T09:51:57;4.90;99.90
44513;DHT22;30219;50.588;9.504;2023-02-01T09:54:26;5.00;99.90
44513;DHT22;30219;50.588;9.504;2023-02-01T09:57:13;5.00;99.90
44513;DHT22;30219;50.588;9.504;2023-02-01T09:59:44;4.90;99.90
44513;DHT22;30219;50.588;9.504;2023-02-01T10:02:16;4.90;99.90
44513;DHT22;30219;50.588;9.504;2023-02-01T10:04:42;4.90;99.90
44513;DHT22;30219;50.588;9.504;2023-02-01T10:10:14;4.80;99.90
44513;DHT22;30219;50.588;9.504;2023-02-01T10:13:01;5.00;99.90
44513;DHT22;30219;50.588;9.504;2023-02-01T10:15:30;5.10;99.90
44513;DHT22;30219;50.588;9.504;2023-02-01T10:21:10;5.20;99.90
44513;DHT22;30219;50.588;9.504;2023-02-01T10:26:24;5.30;99.90
44513;DHT22;30219;50.588;9.504;2023-02-01T10:28:52;5.30;99.90
44513;DHT22;30219;50.588;9.504;2023-02-01T10:31:22;5.30;99.90
44513;DHT22;30219;50.588;9.504;2023-02-01T10:33:55;5.30;99.90
44513;DHT22;30219;50.588;9.504;2023-02-01T10:36:40;5.30;99.90
44513;DHT22;30219;50.588;9.504;2023-02-01T10:39:08;5.30;99.90
44513;DHT22;30219;50.588;9.504;2023-02-01T10:41:36;5.30;99.90
44513;DHT22;30219;50.588;9.504;2023-02-01T10:44:07;5.40;99.90
44513;DHT22;30219;50.588;9.504;2023-02-01T10:46:35;5.50;99.90
44513;DHT22;30219;50.588;9.504;2023-02-01T10:49:04;5.40;99.90
44513;DHT22;30219;50.588;9.504;2023-02-01T10:51:51;5.40;99.90
44513;DHT22;30219;50.588;9.504;2023-02-01T10:54:21;5.40;99.90
44513;DHT22;30219;50.588;9.504;2023-02-01T10:56:48;5.50;99.90
44513;DHT22;30219;50.588;9.504;2023-02-01T10:59:20;5.60;99.90
44513;DHT22;30219;50.588;9.504;2023-02-01T11:01:49;5.60;99.90
44513;DHT22;30219;50.588;9.504;2023-02-01T11:04:16;5.50;99.90
44513;DHT22;30219;50.588;9.504;2023-02-01T11:06:53;5.50;99.90
44513;DHT22;30219;50.588;9.504;2023-02-01T11:09:24;5.50;99.90
44513;DHT22;30219;50.588;9.504;2023-02-01T11:14:37;5.50;99.90
44513;DHT22;30219;50.588;9.504;2023-02-01T11:19:46;5.50;99.90
44513;DHT22;30219;50.588;9.504;2023-02-01T11:22:14;5.40;99.90
44513;DHT22;30219;50.588;9.504;2023-02-01T11:24:40;5.40;99.90
44513;DHT22;30219;50.588;9.504;2023-02-01T11:27:28;5.40;99.90
44513;DHT22;30219;50.588;9.504;2023-02-01T11:29:58;5.40;99.90
44513;DHT22;30219;50.588;9.504;2023-02-01T11:32:25;5.40;99.90
44513;DHT22;30219;50.588;9.504;2023-02-01T11:34:55;5.40;99.90
44513;DHT22;30219;50.588;9.504;2023-02-01T11:37:54;5.40;99.90
44513;DHT22;30219;50.588;9.504;2023-02-01T11:40:25;5.50;99.90
44513;DHT22;30219;50.588;9.504;2023-02-01T11:42:59;5.50;99.90
44513;DHT22;30219;50.588;9.504;2023-02-01T11:45:28;5.60;99.90
44513;DHT22;30219;50.588;9.504;2023-02-01T11:47:54;5.60;99.90
44513;DHT22;30219;50.588;9.504;2023-02-01T11:53:00;5.60;99.90
44513;DHT22;30219;50.588;9.504;2023-02-01T11:56:00;5.50;99.90
44513;DHT22;30219;50.588;9.504;2023-02-01T12:04:11;5.60;99.90
44513;DHT22;30219;50.588;9.504;2023-02-01T12:06:57;5.60;99.90
44513;DHT22;30219;50.588;9.504;2023-02-01T12:17:41;5.40;99.90
44513;DHT22;30219;50.588;9.504;2023-02-01T12:26:50;5.50;99.90
44513;DHT22;30219;50.588;9.504;2023-02-01T12:32:06;5.50;99.90
44513;DHT22;30219;50.588;9.504;2023-02-01T12:34:46;5.60;99.90
44513;DHT22;30219;50.588;9.504;2023-02-01T12:42:48;5.50;99.90
44513;DHT22;30219;50.588;9.504;2023-02-01T12:48:01;5.50;99.90
44513;DHT22;30219;50.588;9.504;2023-02-01T12:50:35;5.60;99.90
44513;DHT22;30219;50.588;9.504;2023-02-01T12:55:49;5.60;99.90
44513;DHT22;30219;50.588;9.504;2023-02-01T12:58:40;5.60;99.90
44513;DHT22;30219;50.588;9.504;2023-02-01T13:03:38;5.60;99.90
44513;DHT22;30219;50.588;9.504;2023-02-01T13:06:30;5.60;99.90
44513;DHT22;30219;50.588;9.504;2023-02-01T13:14:19;5.60;99.90
44513;DHT22;30219;50.588;9.504;2023-02-01T13:16:48;5.60;99.90
44513;DHT22;30219;50.588;9.504;2023-02-01T13:22:21;5.60;99.90
44513;DHT22;30219;50.588;9.504;2023-02-01T13:24:56;5.60;99.90
44513;DHT22;30219;50.588;9.504;2023-02-01T13:27:26;5.60;99.90
44513;DHT22;30219;50.588;9.504;2023-02-01T13:30:03;5.60;99.90
44513;DHT22;30219;50.588;9.504;2023-02-01T13:35:27;5.60;99.90
44513;DHT22;30219;50.588;9.504;2023-02-01T13:43:51;5.60;99.90
44513;DHT22;30219;50.588;9.504;2023-02-01T13:46:18;5.60;99.90
44513;DHT22;30219;50.588;9.504;2023-02-01T13:48:56;5.60;99.90
44513;DHT22;30219;50.588;9.504;2023-02-01T13:51:44;5.60;99.90
44513;DHT22;30219;50.588;9.504;2023-02-01T13:54:31;5.60;99.90
44513;DHT22;30219;50.588;9.504;2023-02-01T13:57:01;5.60;99.90
44513;DHT22;30219;50.588;9.504;2023-02-01T14:10:49;5.70;99.90
44513;DHT22;30219;50.588;9.504;2023-02-01T14:13:39;5.70;99.90
44513;DHT22;30219;50.588;9.504;2023-02-01T14:23:55;5.70;99.90
44513;DHT22;30219;50.588;9.504;2023-02-01T14:36:58;5.80;99.90
44513;DHT22;30219;50.588;9.504;2023-02-01T14:39:49;5.80;99.90
44513;DHT22;30219;50.588;9.504;2023-02-01T14:42:38;5.90;99.90
44513;DHT22;30219;50.588;9.504;2023-02-01T14:52:50;5.90;99.90
44513;DHT22;30219;50.588;9.504;2023-02-01T14:55:25;5.90;99.90
44513;DHT22;30219;50.588;9.504;2023-02-01T14:57:54;5.90;99.90
44513;DHT22;30219;50.588;9.504;2023-02-01T15:02:50;5.90;99.90
44513;DHT22;30219;50.588;9.504;2023-02-01T15:05:34;5.90;99.90
44513;DHT22;30219;50.588;9.504;2023-02-01T15:08:13;5.90;99.90
44513;DHT22;30219;50.588;9.504;2023-02-01T15:10:44;5.80;99.90
44513;DHT22;30219;50.588;9.504;2023-02-01T15:13:22;5.80;99.90
44513;DHT22;30219;50.588;9.504;2023-02-01T15:16:07;5.90;99.90
44513;DHT22;30219;50.588;9.504;2023-02-01T15:18:34;5.80;99.90
44513;DHT22;30219;50.588;9.504;2023-02-01T15:21:01;5.80;99.90
44513;DHT22;30219;50.588;9.504;2023-02-01T15:23:27;5.80;99.90
44513;DHT22;30219;50.588;9.504;2023-02-01T15:25:54;5.90;99.90
44513;DHT22;30219;50.588;9.504;2023-02-01T15:28:20;5.90;99.90
44513;DHT22;30219;50.588;9.504;2023-02-01T15:30:59;5.90;99.90
44513;DHT22;30219;50.588;9.504;2023-02-01T15:33:26;5.90;99.90
44513;DHT22;30219;50.588;9.504;2023-02-01T15:35:54;5.80;99.90
44513;DHT22;30219;50.588;9.504;2023-02-01T15:41:13;5.80;99.90
44513;DHT22;30219;50.588;9.504;2023-02-01T15:43:40;5.80;99.90
44513;DHT22;30219;50.588;9.504;2023-02-01T15:46:14;5.80;99.90
44513;DHT22;30219;50.588;9.504;2023-02-01T15:48:46;5.80;99.90
44513;DHT22;30219;50.588;9.504;2023-02-01T15:51:17;5.80;99.90
44513;DHT22;30219;50.588;9.504;2023-02-01T15:56:37;5.80;99.90
44513;DHT22;30219;50.588;9.504;2023-02-01T15:59:06;5.80;99.90
44513;DHT22;30219;50.588;9.504;2023-02-01T16:01:38;5.80;99.90
44513;DHT22;30219;50.588;9.504;2023-02-01T16:04:27;5.80;99.90
44513;DHT22;30219;50.588;9.504;2023-02-01T16:06:57;5.80;99.90
44513;DHT22;30219;50.588;9.504;2023-02-01T16:09:57;5.80;99.90
44513;DHT22;30219;50.588;9.504;2023-02-01T16:12:31;5.70;99.90
44513;DHT22;30219;50.588;9.504;2023-02-01T16:14:59;5.70;99.90
44513;DHT22;30219;50.588;9.504;2023-02-01T16:17:24;5.60;99.90
44513;DHT22;30219;50.588;9.504;2023-02-01T16:19:50;5.60;99.90
44513;DHT22;30219;50.588;9.504;2023-02-01T16:22:15;5.60;99.90
44513;DHT22;30219;50.588;9.504;2023-02-01T16:24:41;5.60;99.90
44513;DHT22;30219;50.588;9.504;2023-02-01T16:27:07;5.60;99.90
44513;DHT22;30219;50.588;9.504;2023-02-01T16:29:32;5.50;99.90
44513;DHT22;30219;50.588;9.504;2023-02-01T16:31:58;5.50;99.90
44513;DHT22;30219;50.588;9.504;2023-02-01T16:34:31;5.50;99.90
44513;DHT22;30219;50.588;9.504;2023-02-01T16:36:57;5.50;99.90
44513;DHT22;30219;50.588;9.504;2023-02-01T16:39:23;5.40;99.90
44513;DHT22;30219;50.588;9.504;2023-02-01T16:41:49;5.50;99.90
44513;DHT22;30219;50.588;9.504;2023-02-01T16:44:15;5.50;99.90
44513;DHT22;30219;50.588;9.504;2023-02-01T16:46:47;5.50;99.90
44513;DHT22;30219;50.588;9.504;2023-02-01T16:49:21;5.50;99.90
44513;DHT22;30219;50.588;9.504;2023-02-01T16:51:49;5.50;99.90
44513;DHT22;30219;50.588;9.504;2023-02-01T16:54:15;5.50;99.90
44513;DHT22;30219;50.588;9.504;2023-02-01T16:56:41;5.40;99.90
44513;DHT22;30219;50.588;9.504;2023-02-01T16:59:07;5.50;99.90
44513;DHT22;30219;50.588;9.504;2023-02-01T17:01:34;5.50;99.90
44513;DHT22;30219;50.588;9.504;2023-02-01T17:04:00;5.50;99.90
44513;DHT22;30219;50.588;9.504;2023-02-01T17:06:26;5.50;99.90
44513;DHT22;30219;50.588;9.504;2023-02-01T17:08:56;5.50;99.90
44513;DHT22;30219;50.588;9.504;2023-02-01T17:11:26;5.60;99.90
44513;DHT22;30219;50.588;9.504;2023-02-01T17:13:52;5.50;99.90
44513;DHT22;30219;50.588;9.504;2023-02-01T17:18:46;5.50;99.90
44513;DHT22;30219;50.588;9.504;2023-02-01T17:21:13;5.40;99.90
44513;DHT22;30219;50.588;9.504;2023-02-01T17:23:38;5.40;99.90
44513;DHT22;30219;50.588;9.504;2023-02-01T17:26:04;5.50;99.90
44513;DHT22;30219;50.588;9.504;2023-02-01T17:28:30;5.50;99.90
44513;DHT22;30219;50.588;9.504;2023-02-01T17:30:55;5.50;99.90
44513;DHT22;30219;50.588;9.504;2023-02-01T17:33:33;5.50;99.90
44513;DHT22;30219;50.588;9.504;2023-02-01T17:36:00;5.40;99.90
44513;DHT22;30219;50.588;9.504;2023-02-01T17:38:25;5.40;99.90
44513;DHT22;30219;50.588;9.504;2023-02-01T17:40:51;5.40;99.90
44513;DHT22;30219;50.588;9.504;2023-02-01T17:43:24;5.30;99.90
44513;DHT22;30219;50.588;9.504;2023-02-01T17:45:54;5.30;99.90
44513;DHT22;30219;50.588;9.504;2023-02-01T17:48:23;5.30;99.90
44513;DHT22;30219;50.588;9.504;2023-02-01T17:50:50;5.30;99.90
44513;DHT22;30219;50.588;9.504;2023-02-01T17:53:23;5.30;99.90
44513;DHT22;30219;50.588;9.504;2023-02-01T17:55:50;5.30;99.90
44513;DHT22;30219;50.588;9.504;2023-02-01T17:58:16;5.30;99.90
44513;DHT22;30219;50.588;9.504;2023-02-01T18:00:43;5.30;99.90
44513;DHT22;30219;50.588;9.504;2023-02-01T18:03:29;5.20;99.90
44513;DHT22;30219;50.588;9.504;2023-02-01T18:05:57;5.20;99.90
44513;DHT22;30219;50.588;9.504;2023-02-01T18:08:28;5.20;99.90
44513;DHT22;30219;50.588;9.504;2023-02-01T18:10:58;5.20;99.90
44513;DHT22;30219;50.588;9.504;2023-02-01T18:13:25;5.30;99.90
44513;DHT22;30219;50.588;9.504;2023-02-01T18:15:51;5.20;99.90
44513;DHT22;30219;50.588;9.504;2023-02-01T18:18:17;5.30;99.90
44513;DHT22;30219;50.588;9.504;2023-02-01T18:20:44;5.30;99.90
44513;DHT22;30219;50.588;9.504;2023-02-01T18:23:21;5.30;99.90
44513;DHT22;30219;50.588;9.504;2023-02-01T18:25:48;5.30;99.90
44513;DHT22;30219;50.588;9.504;2023-02-01T18:28:16;5.30;99.90
44513;DHT22;30219;50.588;9.504;2023-02-01T18:30:44;5.30;99.90
44513;DHT22;30219;50.588;9.504;2023-02-01T18:33:12;5.30;99.90